Strona główna
METAR-TAF:

METAR-TAF

Lotnisko :

Chatham Municipal Airport

Chatham, Massachusetts, Stany Zjednoczone

Szerokość geograficzna: 41-41-15N, Długość geograficzna: 069-59-36W, wysokość: 20 m

Aktualna obserwacja pogody

Raport powstał 46 minut temu, godzina 09:52 UTC
Wiatr 8 kt od zachodnio-północny zachód
Temperatura 1°C
Wilgotność 64%
Ciśnienie 1016 hPa
Widzialność: 16.1 km
bezchmurnie

METAR: KCQX 210952Z AUTO 30008KT 10SM CLR 01/M05 A3000 RMK AO2 SLP160 T00111050 $

czas: 05:38 (10:38 UTC)


TAF: brakujący

Obserwacja i prognoza pogody dla ponad 4000 lotnisk (raport METAR i TAF).

Dostępne stacje oznaczono żółtymi i czerwonymi punktami na mapie.

Najedź kursorem aby zobaczyć nazwę stacji.

Kliknij aby zobaczyć obserwacje i prognozy pogody.

Aby zmienić mapę: kliknij na zielony przycisk z czarnym krzyżykiem, aby powiększyć; na zielony przycisk z myślnikiem, aby pomniejszyć; na zielone strzałki, aby przejść do map sąsiednich.


METAR-TAF: